createdAt,value
2019-06-07T00:00:26.857Z,14.10
2019-06-07T00:02:35.612Z,14.10
2019-06-07T00:05:04.090Z,14.10
2019-06-07T00:07:30.262Z,14.10
2019-06-07T00:09:56.467Z,14.00
2019-06-07T00:12:22.638Z,13.90
2019-06-07T00:14:48.948Z,13.90
2019-06-07T00:17:17.467Z,13.90
2019-06-07T00:19:43.137Z,13.90
2019-06-07T00:22:23.656Z,13.90
2019-06-07T00:24:37.378Z,13.80
2019-06-07T00:27:03.494Z,13.90
2019-06-07T00:29:29.681Z,13.80
2019-06-07T00:31:55.885Z,13.70
2019-06-07T00:34:23.030Z,13.70
2019-06-07T00:36:50.041Z,13.80
2019-06-07T00:39:21.915Z,13.80
2019-06-07T00:41:44.323Z,13.80
2019-06-07T00:44:10.506Z,13.80
2019-06-07T00:46:36.876Z,13.80
2019-06-07T00:49:03.242Z,13.80
2019-06-07T00:51:49.050Z,13.80
2019-06-07T00:53:57.598Z,13.80
2019-06-07T00:56:24.282Z,13.80
2019-06-07T00:59:10.450Z,13.70
2019-06-07T01:01:22.138Z,13.70
2019-06-07T01:03:47.900Z,13.60
2019-06-07T01:06:15.010Z,13.60
2019-06-07T01:08:41.431Z,13.60
2019-06-07T01:11:07.608Z,13.60
2019-06-07T01:13:33.779Z,13.60
2019-06-07T01:15:59.991Z,13.60
2019-06-07T01:18:37.342Z,13.60
2019-06-07T01:20:54.139Z,13.60
2019-06-07T01:24:01.378Z,13.50
2019-06-07T01:25:48.549Z,13.40
2019-06-07T01:28:16.404Z,13.40
2019-06-07T01:30:42.723Z,13.30
2019-06-07T01:33:08.999Z,13.30
2019-06-07T01:35:35.190Z,13.30
2019-06-07T01:38:01.690Z,13.30
2019-06-07T01:40:30.413Z,13.30
2019-06-07T01:42:55.842Z,13.20
2019-06-07T01:45:23.623Z,13.20
2019-06-07T01:47:50.300Z,13.20
2019-06-07T01:50:17.073Z,13.20
2019-06-07T01:52:44.079Z,13.10
2019-06-07T01:55:10.492Z,13.10
2019-06-07T01:57:47.331Z,13.00
2019-06-07T02:00:05.253Z,13.00
2019-06-07T02:02:32.210Z,13.10
2019-06-07T02:04:58.366Z,13.00
2019-06-07T02:07:29.535Z,13.00
2019-06-07T02:09:52.571Z,13.00
2019-06-07T02:12:27.992Z,13.00
2019-06-07T02:14:46.975Z,13.00
2019-06-07T02:17:13.151Z,13.00
2019-06-07T02:19:39.322Z,13.00
2019-06-07T02:22:05.530Z,13.00
2019-06-07T02:24:35.311Z,12.90
2019-06-07T02:26:59.684Z,12.90
2019-06-07T02:29:28.173Z,12.80
2019-06-07T02:31:53.860Z,12.90
2019-06-07T02:34:21.486Z,12.80
2019-06-07T02:36:47.932Z,12.70
2019-06-07T02:39:14.104Z,12.80
2019-06-07T02:41:40.652Z,12.80
2019-06-07T02:44:07.325Z,12.80
2019-06-07T02:46:44.753Z,12.70
2019-06-07T02:49:01.578Z,12.70
2019-06-07T02:51:33.517Z,12.70
2019-06-07T02:53:56.156Z,12.70
2019-06-07T02:56:53.999Z,12.70
2019-06-07T02:58:50.346Z,12.70
2019-06-07T03:01:16.567Z,12.70
2019-06-07T03:03:43.696Z,12.80
2019-06-07T03:06:12.305Z,12.70
2019-06-07T03:08:39.175Z,12.70
2019-06-07T03:11:05.458Z,12.80
2019-06-07T03:13:34.983Z,12.80
2019-06-07T03:16:03.150Z,12.80
2019-06-07T03:18:32.212Z,12.70
2019-06-07T03:21:05.168Z,12.70
2019-06-07T03:23:28.740Z,12.70
2019-06-07T03:25:57.571Z,12.70
2019-06-07T03:28:24.442Z,12.70
2019-06-07T03:31:01.589Z,12.60
2019-06-07T03:33:18.616Z,12.60
2019-06-07T03:35:45.066Z,12.60
2019-06-07T03:38:11.284Z,12.60
2019-06-07T03:40:39.669Z,12.60
2019-06-07T03:43:05.417Z,12.60
2019-06-07T03:45:33.072Z,12.60
2019-06-07T03:47:59.577Z,12.60
2019-06-07T03:50:28.321Z,12.60
2019-06-07T03:52:53.895Z,12.60
2019-06-07T03:55:20.074Z,12.60
2019-06-07T03:58:29.834Z,12.70
2019-06-07T04:00:14.275Z,12.70
2019-06-07T04:02:41.986Z,12.60
2019-06-07T04:05:09.028Z,12.60
2019-06-07T04:07:36.943Z,12.60
2019-06-07T04:10:06.182Z,12.60
2019-06-07T04:12:38.648Z,12.60
2019-06-07T04:15:00.355Z,12.50
2019-06-07T04:17:26.522Z,12.50
2019-06-07T04:19:52.851Z,12.50
2019-06-07T04:22:19.011Z,12.50
2019-06-07T04:24:45.388Z,12.50
2019-06-07T04:27:11.730Z,12.40
2019-06-07T04:30:04.880Z,12.40
2019-06-07T04:32:05.889Z,12.50
2019-06-07T04:34:34.972Z,12.70
2019-06-07T04:37:00.058Z,12.90
2019-06-07T04:39:26.465Z,13.10
2019-06-07T04:41:52.646Z,13.30
2019-06-07T04:44:19.100Z,13.40
2019-06-07T04:46:45.691Z,13.40
2019-06-07T04:49:12.076Z,13.50
2019-06-07T04:51:41.088Z,13.50
2019-06-07T04:54:06.234Z,13.50
2019-06-07T04:56:33.672Z,13.50
2019-06-07T04:59:00.695Z,13.70
2019-06-07T05:01:29.322Z,13.80
2019-06-07T05:03:55.187Z,13.80
2019-06-07T05:06:21.830Z,13.90
2019-06-07T05:08:48.003Z,13.80
2019-06-07T05:11:14.213Z,13.90
2019-06-07T05:13:43.487Z,13.90
2019-06-07T05:16:08.366Z,14.00
2019-06-07T05:18:36.240Z,14.00
2019-06-07T05:21:02.963Z,14.00
2019-06-07T05:24:03.797Z,14.10
2019-06-07T05:25:57.134Z,14.10
2019-06-07T05:28:23.310Z,14.20
2019-06-07T05:31:07.432Z,14.30
2019-06-07T05:33:17.502Z,14.40
2019-06-07T05:35:43.791Z,14.30
2019-06-07T05:38:10.163Z,14.40
2019-06-07T05:40:41.936Z,14.40
2019-06-07T05:43:06.430Z,14.30
2019-06-07T05:45:38.185Z,14.40
2019-06-07T05:48:04.850Z,14.60
2019-06-07T05:50:43.975Z,14.60
2019-06-07T05:52:59.788Z,14.70
2019-06-07T05:55:25.988Z,14.70
2019-06-07T05:57:52.159Z,14.80
2019-06-07T06:00:18.631Z,14.60
2019-06-07T06:03:04.284Z,14.70
2019-06-07T06:05:32.355Z,14.70
2019-06-07T06:07:45.213Z,14.70
2019-06-07T06:10:09.603Z,15.00
2019-06-07T06:12:40.901Z,14.90
2019-06-07T06:15:05.069Z,15.00
2019-06-07T06:17:31.270Z,15.20
2019-06-07T06:19:57.453Z,15.30
2019-06-07T06:22:23.625Z,15.40
2019-06-07T06:25:30.146Z,15.20
2019-06-07T06:27:55.644Z,15.30
2019-06-07T06:29:47.036Z,15.40
2019-06-07T06:32:41.346Z,15.20
2019-06-07T06:34:45.803Z,15.10
2019-06-07T06:37:10.071Z,15.20
2019-06-07T06:39:37.134Z,15.40
2019-06-07T06:42:03.995Z,15.30
2019-06-07T06:44:31.639Z,15.20
2019-06-07T06:46:58.703Z,15.20
2019-06-07T06:49:25.090Z,15.10
2019-06-07T06:51:53.603Z,15.20
2019-06-07T06:54:39.390Z,15.40
2019-06-07T06:56:49.697Z,15.50
2019-06-07T06:59:37.980Z,15.70
2019-06-07T07:01:45.044Z,15.80
2019-06-07T07:04:13.422Z,15.70
2019-06-07T07:06:41.479Z,15.80
2019-06-07T07:09:08.588Z,15.80
2019-06-07T07:11:52.293Z,15.80
2019-06-07T07:14:02.840Z,15.70
2019-06-07T07:16:29.050Z,15.70
2019-06-07T07:18:55.310Z,15.70
2019-06-07T07:21:21.692Z,15.70
2019-06-07T07:24:14.145Z,15.70
2019-06-07T07:26:16.007Z,15.50
2019-06-07T07:28:42.984Z,15.50
2019-06-07T07:31:10.006Z,15.50
2019-06-07T07:36:18.950Z,15.70
2019-06-07T07:38:32.555Z,15.70
2019-06-07T07:41:14.013Z,16.00
2019-06-07T07:43:26.700Z,16.20
2019-06-07T07:46:01.462Z,16.50
2019-06-07T07:48:20.886Z,16.70
2019-06-07T07:50:49.838Z,16.70
2019-06-07T07:53:15.254Z,16.80
2019-06-07T07:55:41.422Z,17.00
2019-06-07T07:58:07.701Z,17.20
2019-06-07T08:00:52.507Z,17.20
2019-06-07T08:03:04.782Z,17.40
2019-06-07T08:05:42.427Z,17.30
2019-06-07T08:08:01.375Z,17.30
2019-06-07T08:10:28.851Z,17.20
2019-06-07T08:13:18.266Z,17.50
2019-06-07T08:15:23.196Z,17.70
2019-06-07T08:17:51.619Z,17.80
2019-06-07T08:20:17.557Z,17.70
2019-06-07T08:22:43.858Z,17.90
2019-06-07T08:25:10.134Z,18.00
2019-06-07T08:27:36.299Z,17.90
2019-06-07T08:30:45.173Z,18.10
2019-06-07T08:32:32.583Z,18.30
2019-06-07T08:35:03.396Z,18.20
2019-06-07T08:38:13.251Z,18.20
2019-06-07T08:39:56.719Z,18.10
2019-06-07T08:42:36.453Z,18.10
2019-06-07T08:44:53.595Z,18.50
2019-06-07T08:47:21.090Z,18.40
2019-06-07T08:49:47.575Z,18.20
2019-06-07T08:52:13.821Z,18.20
2019-06-07T08:54:39.995Z,18.00
2019-06-07T08:57:19.343Z,18.00
2019-06-07T08:59:34.219Z,17.90
2019-06-07T09:02:05.788Z,18.00
2019-06-07T09:04:28.352Z,18.10
2019-06-07T09:07:07.437Z,18.40
2019-06-07T09:09:22.836Z,18.20
2019-06-07T09:11:49.379Z,18.50
2019-06-07T09:14:15.577Z,18.50
2019-06-07T09:16:41.851Z,18.70
2019-06-07T09:19:10.881Z,18.60
2019-06-07T09:21:36.206Z,18.50
2019-06-07T09:24:10.390Z,18.20
2019-06-07T09:26:30.667Z,18.20
2019-06-07T09:28:58.437Z,18.30
2019-06-07T09:31:24.854Z,18.40
2019-06-07T09:33:51.067Z,18.40
2019-06-07T09:36:18.540Z,18.30
2019-06-07T09:38:44.748Z,18.30
2019-06-07T09:41:10.914Z,18.30
2019-06-07T09:46:11.775Z,18.40
2019-06-07T09:49:09.767Z,18.40
2019-06-07T09:51:09.702Z,18.80
2019-06-07T09:53:29.914Z,18.80
2019-06-07T09:55:56.824Z,19.40
2019-06-07T09:58:51.333Z,19.00
2019-06-07T10:00:52.295Z,19.80
2019-06-07T10:03:23.722Z,19.80
2019-06-07T10:05:49.921Z,19.70
2019-06-07T10:09:26.288Z,19.40
2019-06-07T10:10:44.074Z,19.40
2019-06-07T10:13:12.536Z,19.20
2019-06-07T10:15:39.495Z,19.30
2019-06-07T10:18:06.939Z,19.00
2019-06-07T10:20:33.373Z,19.10
2019-06-07T10:22:59.683Z,19.20
2019-06-07T10:25:25.816Z,19.40
2019-06-07T10:27:52.010Z,19.20
2019-06-07T10:30:18.178Z,19.70
2019-06-07T10:32:45.411Z,19.40
2019-06-07T10:35:16.059Z,19.60
2019-06-07T10:37:39.764Z,20.00
2019-06-07T10:40:07.060Z,20.00
2019-06-07T10:42:33.364Z,20.30
2019-06-07T10:44:59.539Z,20.70
2019-06-07T10:47:25.718Z,21.10
2019-06-07T10:49:52.282Z,21.40
2019-06-07T10:52:18.454Z,21.00
2019-06-07T10:54:45.796Z,21.00
2019-06-07T10:57:15.923Z,21.10
2019-06-07T10:59:40.647Z,21.10
2019-06-07T11:02:07.945Z,21.70
2019-06-07T11:04:34.242Z,22.30
2019-06-07T11:07:00.403Z,22.50
2019-06-07T11:09:27.075Z,22.30
2019-06-07T11:11:53.271Z,21.90
2019-06-07T11:14:20.302Z,21.70
2019-06-07T11:16:46.580Z,22.00
2019-06-07T11:19:17.258Z,22.10
2019-06-07T11:21:41.238Z,21.90
2019-06-07T11:24:08.068Z,21.50
2019-06-07T11:26:34.515Z,21.70
2019-06-07T11:29:00.802Z,22.00
2019-06-07T11:31:26.961Z,22.20
2019-06-07T11:33:53.163Z,22.10
2019-06-07T11:36:19.425Z,22.10
2019-06-07T11:38:45.587Z,21.80
2019-06-07T11:41:11.799Z,21.60
2019-06-07T11:43:38.088Z,21.40
2019-06-07T11:46:04.253Z,21.30
2019-06-07T11:48:30.458Z,21.60
2019-06-07T11:50:56.631Z,21.80
2019-06-07T11:53:23.211Z,22.20
2019-06-07T11:55:49.512Z,22.30
2019-06-07T11:58:19.749Z,22.00
2019-06-07T12:00:43.914Z,21.80
2019-06-07T12:03:11.509Z,21.50
2019-06-07T12:05:37.839Z,21.40
2019-06-07T12:08:04.019Z,21.40
2019-06-07T12:10:41.781Z,21.60
2019-06-07T12:12:58.253Z,21.70
2019-06-07T12:15:24.913Z,21.80
2019-06-07T12:17:51.220Z,21.90
2019-06-07T12:20:20.453Z,21.80
2019-06-07T12:22:45.599Z,21.90
2019-06-07T12:25:12.551Z,21.80
2019-06-07T12:27:39.941Z,21.60
2019-06-07T12:30:11.057Z,21.50
2019-06-07T12:32:34.546Z,21.50
2019-06-07T12:35:00.761Z,21.40
2019-06-07T12:37:42.556Z,21.30
2019-06-07T12:39:55.199Z,21.00
2019-06-07T12:42:22.637Z,20.70
2019-06-07T12:44:48.960Z,20.40
2019-06-07T12:47:15.363Z,20.40
2019-06-07T12:49:41.650Z,20.30
2019-06-07T12:52:07.819Z,20.30
2019-06-07T12:54:34.027Z,20.00
2019-06-07T12:57:00.406Z,19.70
2019-06-07T12:59:26.574Z,19.40
2019-06-07T13:01:52.873Z,19.00
2019-06-07T13:04:20.437Z,18.90
2019-06-07T13:06:46.830Z,18.80
2019-06-07T13:09:13.288Z,18.60
2019-06-07T13:11:39.558Z,18.50
2019-06-07T13:14:05.734Z,18.50
2019-06-07T13:16:33.257Z,18.10
2019-06-07T13:18:59.470Z,18.00
2019-06-07T13:21:25.643Z,18.10
2019-06-07T13:23:51.842Z,18.00
2019-06-07T13:26:18.588Z,18.00
2019-06-07T13:28:45.095Z,18.10
2019-06-07T13:31:11.295Z,18.00
2019-06-07T13:33:38.816Z,17.90
2019-06-07T13:36:05.392Z,17.80
2019-06-07T13:38:31.551Z,17.60
2019-06-07T13:40:57.727Z,17.60
2019-06-07T13:43:24.214Z,17.50
2019-06-07T13:45:50.639Z,17.40
2019-06-07T13:48:17.129Z,17.40
2019-06-07T13:50:43.395Z,17.20
2019-06-07T13:53:09.700Z,17.20
2019-06-07T13:55:35.973Z,17.20
2019-06-07T13:58:02.154Z,17.20
2019-06-07T14:00:28.547Z,17.20
2019-06-07T14:02:54.903Z,17.40
2019-06-07T14:05:21.096Z,17.50
2019-06-07T14:07:47.391Z,17.60
2019-06-07T14:10:13.865Z,17.90
2019-06-07T14:12:40.137Z,18.20
2019-06-07T14:15:08.452Z,18.50
2019-06-07T14:17:35.141Z,18.60
2019-06-07T14:20:02.207Z,18.90
2019-06-07T14:22:29.173Z,18.90
2019-06-07T14:24:55.330Z,18.70
2019-06-07T14:27:21.614Z,18.80
2019-06-07T14:29:48.011Z,19.10
2019-06-07T14:32:14.190Z,18.90
2019-06-07T14:34:40.363Z,18.70
2019-06-07T14:37:07.006Z,18.30
2019-06-07T14:39:33.616Z,18.10
2019-06-07T14:42:09.285Z,18.30
2019-06-07T14:44:29.705Z,18.30
2019-06-07T14:46:56.069Z,18.50
2019-06-07T14:49:23.947Z,18.10
2019-06-07T14:51:50.882Z,18.10
2019-06-07T14:54:17.251Z,18.00
2019-06-07T14:56:43.579Z,18.00
2019-06-07T14:59:10.053Z,18.00
2019-06-07T15:01:36.233Z,18.00
2019-06-07T15:04:02.710Z,18.10
2019-06-07T15:06:28.922Z,17.90
2019-06-07T15:08:55.155Z,18.20
2019-06-07T15:11:21.445Z,18.50
2019-06-07T15:13:47.643Z,18.60
2019-06-07T15:16:13.814Z,18.60
2019-06-07T15:18:41.171Z,18.60
2019-06-07T15:21:07.514Z,18.50
2019-06-07T15:23:35.051Z,18.50
2019-06-07T15:26:01.471Z,18.50
2019-06-07T15:28:27.743Z,18.50
2019-06-07T15:30:53.858Z,18.30
2019-06-07T15:33:20.032Z,18.30
2019-06-07T15:35:46.247Z,18.40
2019-06-07T15:38:12.425Z,18.60
2019-06-07T15:40:39.588Z,18.70
2019-06-07T15:43:06.129Z,18.70
2019-06-07T15:45:33.538Z,19.20
2019-06-07T15:47:59.884Z,20.00
2019-06-07T15:50:28.722Z,21.00
2019-06-07T15:52:54.210Z,20.60
2019-06-07T15:55:20.486Z,20.20
2019-06-07T15:57:46.757Z,19.60
2019-06-07T16:00:14.282Z,19.40
2019-06-07T16:02:41.657Z,19.20
2019-06-07T16:05:08.530Z,18.70
2019-06-07T16:07:36.170Z,18.70
2019-06-07T16:10:04.603Z,18.50
2019-06-07T16:12:30.798Z,18.90
2019-06-07T16:14:56.966Z,19.30
2019-06-07T16:17:23.145Z,19.40
2019-06-07T16:19:50.735Z,19.20
2019-06-07T16:22:17.006Z,19.30
2019-06-07T16:24:43.948Z,19.20
2019-06-07T16:27:10.165Z,18.70
2019-06-07T16:29:36.536Z,18.90
2019-06-07T16:32:02.958Z,19.50
2019-06-07T16:34:29.208Z,20.60
2019-06-07T16:36:55.378Z,21.40
2019-06-07T16:39:21.552Z,21.80
2019-06-07T16:41:48.942Z,22.50
2019-06-07T16:44:15.236Z,22.70
2019-06-07T16:46:42.792Z,21.60
2019-06-07T16:49:09.224Z,21.30
2019-06-07T16:51:35.399Z,21.30
2019-06-07T16:54:01.633Z,21.70
2019-06-07T16:56:28.094Z,21.80
2019-06-07T16:58:54.379Z,22.60
2019-06-07T17:01:20.559Z,22.90
2019-06-07T17:03:47.638Z,22.30
2019-06-07T17:06:13.881Z,22.20
2019-06-07T17:08:40.226Z,21.90
2019-06-07T17:11:06.618Z,22.40
2019-06-07T17:13:33.967Z,22.30
2019-06-07T17:16:00.367Z,22.30
2019-06-07T17:18:26.572Z,21.50
2019-06-07T17:20:53.174Z,21.10
2019-06-07T17:23:19.350Z,20.10
2019-06-07T17:25:45.911Z,19.90
2019-06-07T17:28:12.675Z,19.30
2019-06-07T17:30:39.775Z,19.10
2019-06-07T17:33:06.467Z,18.90
2019-06-07T17:35:32.667Z,18.80
2019-06-07T17:37:59.018Z,18.80
2019-06-07T17:40:25.214Z,18.50
2019-06-07T17:42:51.386Z,18.40
2019-06-07T17:45:17.765Z,18.40
2019-06-07T17:47:45.525Z,18.10
2019-06-07T17:50:12.450Z,18.10
2019-06-07T17:52:38.948Z,18.00
2019-06-07T17:55:06.133Z,18.00
2019-06-07T17:57:32.308Z,17.80
2019-06-07T17:59:58.487Z,17.70
2019-06-07T18:02:24.794Z,17.90
2019-06-07T18:04:51.370Z,17.70
2019-06-07T18:07:17.646Z,17.80
2019-06-07T18:09:43.854Z,17.70
2019-06-07T18:12:10.138Z,17.50
2019-06-07T18:14:36.318Z,17.50
2019-06-07T18:17:02.944Z,17.30
2019-06-07T18:19:29.102Z,17.30
2019-06-07T18:21:58.807Z,17.30
2019-06-07T18:24:23.638Z,17.20
2019-06-07T18:26:50.512Z,17.30
2019-06-07T18:29:16.738Z,17.30
2019-06-07T18:31:42.951Z,17.30
2019-06-07T18:34:09.726Z,17.30
2019-06-07T18:36:35.906Z,17.20
2019-06-07T18:39:04.210Z,17.30
2019-06-07T18:41:30.390Z,17.30
2019-06-07T18:43:56.572Z,17.30
2019-06-07T18:46:22.801Z,17.30
2019-06-07T18:48:50.491Z,17.30
2019-06-07T18:51:16.739Z,17.30
2019-06-07T18:53:43.024Z,17.40
2019-06-07T18:56:09.355Z,17.30
2019-06-07T18:58:35.535Z,17.30
2019-06-07T19:01:01.927Z,17.40
2019-06-07T19:03:28.094Z,17.50
2019-06-07T19:05:54.366Z,17.30
2019-06-07T19:08:20.775Z,17.10
2019-06-07T19:10:47.047Z,16.90
2019-06-07T19:13:14.675Z,16.60
2019-06-07T19:15:43.292Z,16.30
2019-06-07T19:18:09.329Z,16.10
2019-06-07T19:20:35.702Z,16.10
2019-06-07T19:23:02.772Z,16.20
2019-06-07T19:25:28.936Z,16.20
2019-06-07T19:27:55.146Z,16.10
2019-06-07T19:30:21.344Z,16.10
2019-06-07T19:32:49.573Z,15.90
2019-06-07T19:35:15.702Z,15.80
2019-06-07T19:37:42.091Z,15.70
2019-06-07T19:40:08.966Z,15.70
2019-06-07T19:42:35.486Z,15.70
2019-06-07T19:45:28.493Z,15.60
2019-06-07T19:47:31.017Z,15.60
2019-06-07T19:49:57.204Z,15.70
2019-06-07T19:52:23.393Z,15.70
2019-06-07T19:54:49.582Z,15.60
2019-06-07T19:57:15.764Z,15.60
2019-06-07T19:59:42.170Z,15.70
2019-06-07T20:02:08.342Z,15.70
2019-06-07T20:04:34.529Z,15.60
2019-06-07T20:07:00.747Z,15.60
2019-06-07T20:09:27.026Z,15.60
2019-06-07T20:11:54.354Z,15.60
2019-06-07T20:14:20.713Z,15.40
2019-06-07T20:16:46.891Z,15.50
2019-06-07T20:19:13.071Z,15.50
2019-06-07T20:21:39.266Z,15.60
2019-06-07T20:24:22.807Z,15.60
2019-06-07T20:26:34.038Z,15.60
2019-06-07T20:29:01.330Z,15.60
2019-06-07T20:31:28.018Z,15.60
2019-06-07T20:33:54.253Z,15.60
2019-06-07T20:36:20.567Z,15.50
2019-06-07T20:38:46.763Z,15.40
2019-06-07T20:41:12.930Z,15.50
2019-06-07T20:43:39.369Z,15.50
2019-06-07T20:46:06.593Z,15.50
2019-06-07T20:48:33.217Z,15.40
2019-06-07T20:51:01.105Z,15.40
2019-06-07T20:53:27.422Z,15.30
2019-06-07T20:55:53.623Z,15.40
2019-06-07T20:58:19.818Z,15.50
2019-06-07T21:00:45.994Z,15.50
2019-06-07T21:03:13.217Z,15.50
2019-06-07T21:05:39.374Z,15.50
2019-06-07T21:08:09.288Z,15.50
2019-06-07T21:10:33.817Z,15.40
2019-06-07T21:13:00.122Z,15.40
2019-06-07T21:15:26.318Z,15.30
2019-06-07T21:17:52.492Z,15.40
2019-06-07T21:20:18.689Z,15.30
2019-06-07T21:22:45.072Z,15.30
2019-06-07T21:25:13.411Z,15.30
2019-06-07T21:27:39.707Z,15.30
2019-06-07T21:30:07.484Z,15.20
2019-06-07T21:32:33.652Z,15.10
2019-06-07T21:34:59.855Z,15.10
2019-06-07T21:37:26.034Z,15.10
2019-06-07T21:39:52.325Z,15.10
2019-06-07T21:42:18.508Z,15.00
2019-06-07T21:44:44.687Z,15.00
2019-06-07T21:47:10.863Z,15.00
2019-06-07T21:49:38.359Z,15.00
2019-06-07T21:52:04.533Z,15.00
2019-06-07T21:54:30.817Z,15.00
2019-06-07T21:56:57.147Z,15.00
2019-06-07T21:59:23.272Z,15.00
2019-06-07T22:01:49.542Z,15.00
2019-06-07T22:04:15.748Z,15.00
2019-06-07T22:06:41.923Z,14.90
2019-06-07T22:09:08.116Z,14.90
2019-06-07T22:11:34.394Z,14.80
2019-06-07T22:14:01.075Z,14.80
2019-06-07T22:16:29.387Z,14.80
2019-06-07T22:18:55.262Z,14.70
2019-06-07T22:21:21.683Z,14.60
2019-06-07T22:23:47.818Z,14.60
2019-06-07T22:26:15.584Z,14.40
2019-06-07T22:28:41.966Z,14.30
2019-06-07T22:31:08.577Z,14.20
2019-06-07T22:33:34.847Z,14.20
2019-06-07T22:36:01.026Z,14.10
2019-06-07T22:38:27.309Z,14.10
2019-06-07T22:40:53.514Z,14.00
2019-06-07T22:43:20.091Z,13.90
2019-06-07T22:45:46.357Z,13.90
2019-06-07T22:48:13.421Z,13.80
2019-06-07T22:50:39.631Z,13.90
2019-06-07T22:53:07.295Z,13.80
2019-06-07T22:55:33.727Z,13.90
2019-06-07T22:58:00.102Z,13.90
2019-06-07T23:00:28.478Z,13.90
2019-06-07T23:02:54.783Z,13.90
2019-06-07T23:05:20.959Z,13.90
2019-06-07T23:07:47.122Z,13.90
2019-06-07T23:10:13.437Z,13.90
2019-06-07T23:12:39.633Z,13.80
2019-06-07T23:15:06.398Z,13.80
2019-06-07T23:17:33.012Z,13.80
2019-06-07T23:19:59.198Z,13.80
2019-06-07T23:22:25.571Z,13.70
2019-06-07T23:24:51.894Z,13.70
2019-06-07T23:27:18.465Z,13.80
2019-06-07T23:29:44.722Z,13.80
2019-06-07T23:32:12.517Z,13.80
2019-06-07T23:34:39.086Z,13.80
2019-06-07T23:37:05.313Z,13.80
2019-06-07T23:39:32.585Z,13.70
2019-06-07T23:41:58.994Z,13.70
2019-06-07T23:44:25.374Z,13.80
2019-06-07T23:46:51.750Z,13.70
2019-06-07T23:49:17.930Z,13.70
2019-06-07T23:51:44.120Z,13.70
2019-06-07T23:54:11.488Z,13.70
2019-06-07T23:56:37.798Z,13.70
2019-06-07T23:59:04.109Z,13.80
